Time;durP1;ratioP1;P1;durP2;ratioP2;P2;SDS_P1;SDS_P2;PMS_P1;PMS_P2;Temp;Humidity;BMP_temperature;BMP_pressure;BME280_temperature;BME280_humidity;BME280_pressure;Samples;Min_cycle;Max_cycle;Signal;HPM_P1;HPM_P2
2022/07/06 00:02:41;;;;;;;2.07;1.97;;;17.80;1.00;;;;;;6230975;28;20759;-55
2022/07/06 00:05:44;;;;;;;1.77;1.77;;;17.80;1.00;;;;;;6235589;28;20246;-54
2022/07/06 00:08:47;;;;;;;3.33;1.93;;;17.70;1.00;;;;;;6230196;28;20238;-54
2022/07/06 00:11:54;;;;;;;2.00;2.00;;;17.70;1.00;;;;;;6236166;28;20641;-53
2022/07/06 00:14:57;;;;;;;1.87;1.70;;;17.70;1.00;;;;;;6210820;28;20231;-53
2022/07/06 00:18:03;;;;;;;1.70;1.60;;;17.60;1.00;;;;;;6198581;28;20267;-54
2022/07/06 00:21:06;;;;;;;1.80;1.80;;;17.60;1.00;;;;;;6210670;28;20243;-54
2022/07/06 00:24:09;;;;;;;1.70;1.70;;;17.60;1.00;;;;;;6206419;28;20390;-54
2022/07/06 00:27:13;;;;;;;3.87;2.10;;;17.50;1.00;;;;;;6193778;28;20240;-53
2022/07/06 00:30:17;;;;;;;1.90;1.80;;;17.50;1.00;;;;;;6199391;28;20516;-53
2022/07/06 00:33:19;;;;;;;2.27;2.10;;;17.50;1.00;;;;;;6210296;28;20600;-54
2022/07/06 00:36:22;;;;;;;1.90;1.80;;;17.40;1.00;;;;;;6208131;28;20275;-55
2022/07/06 00:39:29;;;;;;;2.10;1.90;;;17.40;1.00;;;;;;6205440;28;20293;-54
2022/07/06 00:42:41;;;;;;;1.67;1.67;;;17.40;1.00;;;;;;6210658;28;20323;-55
2022/07/06 00:45:44;;;;;;;2.20;2.10;;;17.40;1.00;;;;;;6192386;28;20718;-55
2022/07/06 00:48:48;;;;;;;2.13;1.80;;;17.30;1.00;;;;;;6184115;28;20291;-54
2022/07/06 00:51:51;;;;;;;2.60;1.73;;;17.30;1.00;;;;;;6173405;28;20406;-55
2022/07/06 00:54:54;;;;;;;2.20;2.10;;;17.30;1.00;;;;;;6194955;28;20231;-54
2022/07/06 00:58:10;;;;;;;2.93;2.00;;;17.30;1.00;;;;;;6209578;28;20239;-55
2022/07/06 01:01:13;;;;;;;1.97;1.87;;;17.30;1.00;;;;;;6211766;28;20365;-54
2022/07/06 01:04:16;;;;;;;2.13;2.00;;;17.30;1.00;;;;;;6240785;28;20316;-54
2022/07/06 01:07:19;;;;;;;2.30;2.17;;;17.30;1.00;;;;;;6238712;28;20647;-53
2022/07/06 01:10:23;;;;;;;2.77;2.17;;;17.40;1.00;;;;;;6232146;28;20348;-53
2022/07/06 01:13:28;;;;;;;2.17;2.13;;;17.40;1.00;;;;;;6217929;28;20717;-55
2022/07/06 01:16:32;;;;;;;2.73;1.93;;;17.40;1.00;;;;;;6209387;28;20235;-58
2022/07/06 01:19:35;;;;;;;2.53;2.43;;;17.40;1.00;;;;;;6208527;28;20322;-55
2022/07/06 01:22:39;;;;;;;2.57;2.17;;;17.40;1.00;;;;;;6206393;28;20633;-54
2022/07/06 01:25:43;;;;;;;2.57;2.37;;;17.40;1.00;;;;;;6209662;28;20262;-54
2022/07/06 01:28:51;;;;;;;2.20;2.00;;;17.40;1.00;;;;;;6208731;28;20235;-55
2022/07/06 01:31:53;;;;;;;2.53;2.10;;;17.40;1.00;;;;;;6184777;28;20234;-54
2022/07/06 01:34:57;;;;;;;1.90;1.80;;;17.30;1.00;;;;;;6206204;28;20235;-55
2022/07/06 01:38:10;;;;;;;5.10;2.50;;;17.30;1.00;;;;;;6202087;28;20481;-54
2022/07/06 01:41:13;;;;;;;4.10;2.00;;;17.30;1.00;;;;;;6208847;28;20867;-52
2022/07/06 01:44:17;;;;;;;2.20;2.10;;;17.20;1.00;;;;;;6208844;28;20266;-55
2022/07/06 01:47:21;;;;;;;4.30;2.10;;;17.20;1.00;;;;;;6196062;28;20240;-54
2022/07/06 01:50:23;;;;;;;1.90;1.90;;;17.20;1.00;;;;;;6203647;28;20385;-55
2022/07/06 01:53:28;;;;;;;2.33;2.23;;;17.20;1.00;;;;;;6204695;28;20749;-54
2022/07/06 01:56:31;;;;;;;1.93;1.93;;;17.20;1.00;;;;;;6208770;28;20326;-55
2022/07/06 01:59:34;;;;;;;6.70;2.27;;;17.20;1.00;;;;;;6185862;28;20351;-54
2022/07/06 02:02:38;;;;;;;5.80;2.40;;;17.20;1.00;;;;;;6186857;28;20357;-54
2022/07/06 02:05:41;;;;;;;1.90;1.80;;;17.20;1.00;;;;;;6208103;28;20636;-53
2022/07/06 02:08:45;;;;;;;2.60;2.17;;;17.20;1.00;;;;;;6187391;28;20288;-54
2022/07/06 02:11:48;;;;;;;2.17;2.00;;;17.30;1.00;;;;;;6206515;28;20231;-55
2022/07/06 02:14:51;;;;;;;2.23;2.00;;;17.30;1.00;;;;;;6205954;28;20234;-53
2022/07/06 02:17:54;;;;;;;2.43;2.33;;;17.40;1.00;;;;;;6189555;28;20394;-54
2022/07/06 02:20:57;;;;;;;2.40;2.30;;;17.40;1.00;;;;;;6208072;28;20247;-55
2022/07/06 02:24:05;;;;;;;2.43;2.23;;;17.40;1.00;;;;;;6203894;28;21045;-54
2022/07/06 02:27:08;;;;;;;5.43;2.53;;;17.30;1.00;;;;;;6203145;28;20240;-54
2022/07/06 02:30:11;;;;;;;2.73;2.57;;;17.30;1.00;;;;;;6195935;28;20263;-54
2022/07/06 02:33:14;;;;;;;2.50;2.40;;;17.20;1.00;;;;;;6205955;28;20313;-53
2022/07/06 02:36:17;;;;;;;2.73;2.53;;;17.20;1.00;;;;;;6206777;28;20227;-55
2022/07/06 02:39:21;;;;;;;4.00;2.50;;;17.10;1.00;;;;;;6199121;28;20243;-54
2022/07/06 02:42:24;;;;;;;3.87;2.20;;;17.00;1.00;;;;;;6213062;28;20249;-55
2022/07/06 02:45:28;;;;;;;5.60;3.17;;;16.90;1.00;;;;;;6213207;28;20236;-55
2022/07/06 02:48:31;;;;;;;3.50;2.63;;;16.70;1.00;;;;;;6190992;28;20244;-57
2022/07/06 02:51:34;;;;;;;2.30;2.20;;;16.60;1.00;;;;;;6187743;28;20735;-55
2022/07/06 02:54:38;;;;;;;4.20;2.80;;;16.50;1.00;;;;;;6185701;28;20235;-56
2022/07/06 02:57:41;;;;;;;7.87;2.70;;;16.30;1.00;;;;;;6187298;28;20715;-56
2022/07/06 03:00:53;;;;;;;3.27;2.70;;;16.30;1.00;;;;;;6188167;28;20625;-56
2022/07/06 03:03:56;;;;;;;3.20;3.00;;;16.20;1.00;;;;;;6190878;28;20243;-55
2022/07/06 03:06:59;;;;;;;2.73;2.60;;;16.10;1.00;;;;;;6206223;28;20322;-54
2022/07/06 03:10:04;;;;;;;2.50;2.30;;;16.00;1.00;;;;;;6208930;28;20324;-54
2022/07/06 03:13:07;;;;;;;2.90;2.60;;;16.00;1.00;;;;;;6199573;28;20498;-53
2022/07/06 03:16:10;;;;;;;3.10;2.90;;;15.90;1.00;;;;;;6187368;28;20378;-56
2022/07/06 03:19:16;;;;;;;4.70;2.83;;;15.90;1.00;;;;;;6185992;28;20255;-55
2022/07/06 03:22:19;;;;;;;2.90;2.70;;;15.90;1.00;;;;;;6184796;28;20375;-55
2022/07/06 03:25:23;;;;;;;3.53;2.87;;;15.90;1.00;;;;;;6187041;28;20355;-55
2022/07/06 03:28:26;;;;;;;2.77;2.57;;;15.90;1.00;;;;;;6182059;28;20329;-54
2022/07/06 03:31:35;;;;;;;3.00;2.37;;;15.90;1.00;;;;;;6180220;28;20258;-54
2022/07/06 03:34:38;;;;;;;3.70;2.83;;;15.90;1.00;;;;;;6211364;28;20235;-54
2022/07/06 03:37:41;;;;;;;3.57;2.67;;;15.90;1.00;;;;;;6206466;28;20239;-53
2022/07/06 03:40:46;;;;;;;2.63;2.53;;;15.80;1.00;;;;;;6210334;28;20318;-53
2022/07/06 03:43:49;;;;;;;2.73;2.50;;;15.80;1.00;;;;;;6210197;28;21291;-54
2022/07/06 03:46:55;;;;;;;5.57;2.90;;;15.80;1.00;;;;;;6232352;28;20332;-54
2022/07/06 03:49:58;;;;;;;3.73;2.47;;;15.70;1.00;;;;;;6231370;28;20234;-54
2022/07/06 03:53:01;;;;;;;2.80;2.70;;;15.80;1.00;;;;;;6215793;28;20677;-53
2022/07/06 03:59:26;;;;;;;3.13;2.70;;;15.70;1.00;;;;;;6233310;28;20456;-53
2022/07/06 04:02:29;;;;;;;4.57;2.63;;;15.70;1.00;;;;;;6233326;28;20257;-54
2022/07/06 04:05:32;;;;;;;3.03;2.50;;;15.80;1.00;;;;;;6230098;28;20242;-53
2022/07/06 04:08:34;;;;;;;2.77;2.53;;;15.80;1.00;;;;;;6228429;28;20243;-52
2022/07/06 04:11:39;;;;;;;2.93;2.57;;;15.90;1.00;;;;;;6231533;28;20239;-53
2022/07/06 04:14:42;;;;;;;2.57;2.47;;;15.90;1.00;;;;;;6229888;28;20374;-54
2022/07/06 04:17:53;;;;;;;2.53;2.40;;;15.90;1.00;;;;;;6226582;28;20385;-53
2022/07/06 04:20:57;;;;;;;2.80;2.60;;;16.00;1.00;;;;;;6231336;28;20260;-53
2022/07/06 04:24:03;;;;;;;3.17;2.53;;;16.00;1.00;;;;;;6235221;28;20469;-53
2022/07/06 04:27:07;;;;;;;2.50;2.40;;;16.10;1.00;;;;;;6236924;28;20253;-52
2022/07/06 04:30:11;;;;;;;4.87;2.60;;;16.20;1.00;;;;;;6240812;28;20282;-53
2022/07/06 04:33:14;;;;;;;4.10;2.60;;;16.20;1.00;;;;;;6230773;28;20714;-53
2022/07/06 04:36:17;;;;;;;4.10;2.53;;;16.30;1.00;;;;;;6235661;28;20703;-54
2022/07/06 04:39:20;;;;;;;2.70;2.50;;;16.30;1.00;;;;;;6229962;28;20420;-52
2022/07/06 04:42:25;;;;;;;2.80;2.47;;;16.30;1.00;;;;;;6235798;28;20256;-53
2022/07/06 04:45:28;;;;;;;2.67;2.37;;;16.20;1.00;;;;;;6238906;28;20385;-54
2022/07/06 04:48:32;;;;;;;2.23;2.13;;;16.20;1.00;;;;;;6223551;28;20366;-53
2022/07/06 04:51:34;;;;;;;4.83;2.50;;;16.30;1.00;;;;;;6233971;28;20297;-54
2022/07/06 04:54:38;;;;;;;3.90;2.60;;;16.40;1.00;;;;;;6229681;28;20231;-54
2022/07/06 04:57:42;;;;;;;2.67;2.43;;;16.50;1.00;;;;;;6232301;28;20381;-54
2022/07/06 05:00:45;;;;;;;2.47;2.27;;;16.50;1.00;;;;;;6235810;28;20351;-54
2022/07/06 05:03:48;;;;;;;3.00;2.50;;;16.60;1.00;;;;;;6235663;28;20642;-53
2022/07/06 05:06:51;;;;;;;4.63;2.57;;;16.70;1.00;;;;;;6229370;28;20298;-55
2022/07/06 05:09:53;;;;;;;2.27;2.10;;;16.90;1.00;;;;;;6235879;28;20317;-53
2022/07/06 05:12:58;;;;;;;4.70;2.33;;;17.00;1.00;;;;;;6232802;28;20290;-54
2022/07/06 05:16:01;;;;;;;3.27;2.20;;;17.20;1.00;;;;;;6229237;28;20242;-53
2022/07/06 05:19:04;;;;;;;2.90;2.33;;;17.40;1.00;;;;;;6229426;28;20393;-52
2022/07/06 05:22:07;;;;;;;3.03;2.30;;;17.50;1.00;;;;;;6230993;28;20310;-53
2022/07/06 05:25:10;;;;;;;5.67;2.67;;;17.70;1.00;;;;;;6233711;28;20671;-54
2022/07/06 05:28:18;;;;;;;2.13;2.03;;;18.10;1.00;;;;;;6236617;28;20303;-52
2022/07/06 05:31:21;;;;;;;2.33;2.13;;;18.20;1.00;;;;;;6231356;28;20249;-53
2022/07/06 05:34:24;;;;;;;2.33;2.23;;;18.40;1.00;;;;;;6237825;28;20857;-53
2022/07/06 05:37:27;;;;;;;2.70;2.13;;;18.50;1.00;;;;;;6229589;28;20268;-53
2022/07/06 05:40:30;;;;;;;3.13;2.20;;;18.60;1.00;;;;;;6222619;28;20231;-53
2022/07/06 05:43:37;;;;;;;4.00;2.20;;;18.80;1.00;;;;;;6234486;28;20303;-53
2022/07/06 05:46:40;;;;;;;3.77;1.80;;;18.90;1.00;;;;;;6231632;28;22884;-53
2022/07/06 05:53:11;;;;;;;5.23;1.93;;;19.30;1.00;;;;;;6227947;28;20361;-52
2022/07/06 05:56:27;;;;;;;3.03;2.00;;;19.50;1.00;;;;;;6232073;28;20862;-54
2022/07/06 05:59:32;;;;;;;3.30;1.97;;;19.70;1.00;;;;;;6230522;28;20442;-51
2022/07/06 06:02:39;;;;;;;7.20;2.03;;;19.70;1.00;;;;;;6242441;28;20258;-53
2022/07/06 06:05:42;;;;;;;3.07;2.07;;;20.00;1.00;;;;;;6232524;28;20235;-53
2022/07/06 06:08:57;;;;;;;3.13;2.00;;;20.30;1.00;;;;;;6220694;28;20786;-54
2022/07/06 06:12:00;;;;;;;4.07;2.10;;;20.40;1.00;;;;;;6238959;28;20566;-53
2022/07/06 06:15:05;;;;;;;3.87;2.13;;;20.50;1.00;;;;;;6232771;28;20318;-54
2022/07/06 06:18:08;;;;;;;2.90;1.97;;;20.80;1.00;;;;;;6229452;28;20282;-58
2022/07/06 06:21:12;;;;;;;5.10;2.13;;;20.90;1.00;;;;;;6233916;28;20321;-54
2022/07/06 06:24:15;;;;;;;3.00;2.10;;;21.00;1.00;;;;;;6240074;28;20315;-53
2022/07/06 06:27:18;;;;;;;3.77;1.97;;;21.10;1.00;;;;;;6233286;28;20618;-53
2022/07/06 06:30:22;;;;;;;2.47;2.07;;;21.30;1.00;;;;;;6239255;28;20231;-53
2022/07/06 06:33:25;;;;;;;2.50;2.00;;;21.30;1.00;;;;;;6226528;28;20596;-54
2022/07/06 06:36:28;;;;;;;4.17;2.43;;;21.10;1.00;;;;;;6234438;28;20273;-52
2022/07/06 06:39:32;;;;;;;2.23;2.00;;;21.10;1.00;;;;;;6236271;28;20716;-54
2022/07/06 06:42:39;;;;;;;3.67;2.27;;;21.30;1.00;;;;;;6232462;28;21910;-52
2022/07/06 06:45:44;;;;;;;2.13;1.93;;;21.40;1.00;;;;;;6232638;28;20238;-54
2022/07/06 06:48:47;;;;;;;2.97;1.67;;;21.50;1.00;;;;;;6229554;28;20801;-52
2022/07/06 06:51:50;;;;;;;2.50;2.20;;;21.50;1.00;;;;;;6227851;28;20244;-54
2022/07/06 06:54:53;;;;;;;2.43;2.23;;;21.60;1.00;;;;;;6233363;28;20847;-55
2022/07/06 06:57:57;;;;;;;3.23;2.43;;;22.00;1.00;;;;;;6238203;28;20242;-54
2022/07/06 07:01:01;;;;;;;4.50;2.10;;;21.90;1.00;;;;;;6236874;28;20338;-54
2022/07/06 07:04:05;;;;;;;2.57;2.13;;;21.80;1.00;;;;;;6231315;28;20329;-53
2022/07/06 07:07:09;;;;;;;3.33;2.20;;;21.30;1.00;;;;;;6223269;28;20382;-54
2022/07/06 07:10:12;;;;;;;3.27;2.30;;;21.00;1.00;;;;;;6239804;28;20323;-54
2022/07/06 07:13:15;;;;;;;4.80;2.27;;;21.00;1.00;;;;;;6242457;28;20247;-53
2022/07/06 07:16:19;;;;;;;2.37;2.27;;;20.90;1.00;;;;;;6243216;28;20256;-52
2022/07/06 07:19:22;;;;;;;2.50;1.87;;;21.20;1.00;;;;;;6238758;28;20247;-53
2022/07/06 07:22:27;;;;;;;4.37;2.10;;;21.40;1.00;;;;;;6224017;28;20852;-53
2022/07/06 07:25:30;;;;;;;4.40;2.20;;;21.00;1.00;;;;;;6235092;28;20258;-53
2022/07/06 07:28:33;;;;;;;3.77;1.90;;;20.80;1.00;;;;;;6235023;28;20273;-54
2022/07/06 07:31:37;;;;;;;4.00;2.30;;;21.20;1.00;;;;;;6235072;28;20369;-52
2022/07/06 07:34:41;;;;;;;3.80;2.53;;;20.90;1.00;;;;;;6231730;28;20234;-53
2022/07/06 07:37:44;;;;;;;2.20;2.10;;;20.90;1.00;;;;;;6236528;28;20640;-53
2022/07/06 07:40:47;;;;;;;3.20;2.10;;;20.60;1.00;;;;;;6234559;28;20329;-54
2022/07/06 07:43:50;;;;;;;2.00;1.80;;;20.30;1.00;;;;;;6229042;28;20266;-53
2022/07/06 07:46:55;;;;;;;2.00;1.90;;;20.30;1.00;;;;;;6238606;28;20230;-56
2022/07/06 07:49:58;;;;;;;2.27;2.10;;;20.50;1.00;;;;;;6235011;28;20274;-54
2022/07/06 07:53:00;;;;;;;4.97;1.93;;;20.80;1.00;;;;;;6234724;28;20325;-53
2022/07/06 07:56:04;;;;;;;2.33;1.93;;;20.80;1.00;;;;;;6235268;28;20226;-53
2022/07/06 07:59:07;;;;;;;2.13;2.00;;;20.80;1.00;;;;;;6241966;28;20249;-54
2022/07/06 08:02:11;;;;;;;4.97;1.87;;;20.80;1.00;;;;;;6237886;28;20834;-53
2022/07/06 08:05:15;;;;;;;1.90;1.80;;;20.90;1.00;;;;;;6236207;28;20720;-53
2022/07/06 08:08:18;;;;;;;3.10;1.70;;;20.50;1.00;;;;;;6231928;28;20680;-53
2022/07/06 08:11:21;;;;;;;1.97;1.87;;;20.60;1.00;;;;;;6235907;28;20274;-54
2022/07/06 08:14:24;;;;;;;1.80;1.73;;;20.50;1.00;;;;;;6232121;28;20242;-53
2022/07/06 08:17:29;;;;;;;3.70;2.00;;;20.50;1.00;;;;;;6236573;28;20287;-53
2022/07/06 08:20:32;;;;;;;2.90;2.30;;;20.20;1.00;;;;;;6223632;28;20395;-53
2022/07/06 08:23:35;;;;;;;3.03;2.07;;;20.20;1.00;;;;;;6223470;28;20329;-52
2022/07/06 08:26:41;;;;;;;2.20;1.60;;;20.40;1.00;;;;;;6240906;28;20389;-54
2022/07/06 08:29:44;;;;;;;2.20;2.00;;;20.50;1.00;;;;;;6235287;28;20231;-54
2022/07/06 08:32:48;;;;;;;1.93;1.77;;;20.60;1.00;;;;;;6231767;28;20325;-54
2022/07/06 08:36:09;;;;;;;2.17;1.97;;;20.60;1.00;;;;;;6237258;28;20238;-53
2022/07/06 08:39:12;;;;;;;4.67;2.30;;;20.40;1.00;;;;;;6235534;28;20246;-53
2022/07/06 08:42:17;;;;;;;4.10;2.00;;;20.40;1.00;;;;;;6231835;28;20239;-53
2022/07/06 08:45:21;;;;;;;1.90;1.63;;;20.60;1.00;;;;;;6233368;28;20393;-53
2022/07/06 08:48:26;;;;;;;2.27;1.50;;;20.80;1.00;;;;;;6239048;28;20621;-54
2022/07/06 08:51:29;;;;;;;3.73;1.80;;;20.90;1.00;;;;;;6230871;28;20776;-55
2022/07/06 08:54:32;;;;;;;2.10;1.90;;;20.80;1.00;;;;;;6228393;28;20717;-54
2022/07/06 08:57:36;;;;;;;3.33;1.57;;;20.80;1.00;;;;;;6233161;28;20242;-53
2022/07/06 09:00:39;;;;;;;4.00;1.43;;;20.60;1.00;;;;;;6232386;28;20254;-53
2022/07/06 09:03:46;;;;;;;3.33;1.93;;;20.60;1.00;;;;;;6237382;28;20309;-54
2022/07/06 09:06:51;;;;;;;1.70;1.60;;;20.50;1.00;;;;;;6233343;28;20238;-53
2022/07/06 09:09:55;;;;;;;2.00;1.70;;;20.40;1.00;;;;;;6226374;28;20304;-54
2022/07/06 09:13:04;;;;;;;1.90;1.50;;;20.40;1.00;;;;;;6230580;28;20292;-54
2022/07/06 09:16:11;;;;;;;1.77;1.63;;;20.50;1.00;;;;;;6233072;28;20471;-53
2022/07/06 09:19:36;;;;;;;2.53;1.67;;;20.40;1.00;;;;;;6227362;28;20605;-53
2022/07/06 09:22:41;;;;;;;2.00;1.40;;;20.40;1.00;;;;;;6229657;28;20881;-53
2022/07/06 09:25:49;;;;;;;2.53;1.60;;;20.50;1.00;;;;;;6237618;28;20315;-53
2022/07/06 09:28:55;;;;;;;1.73;1.63;;;20.50;1.00;;;;;;6235094;28;20739;-53
2022/07/06 09:31:59;;;;;;;1.67;1.37;;;20.60;1.00;;;;;;6227937;28;20818;-51
2022/07/06 09:35:04;;;;;;;2.00;1.30;;;20.70;1.00;;;;;;6230947;28;20322;-55
2022/07/06 09:38:17;;;;;;;1.40;1.40;;;20.50;1.00;;;;;;6237528;28;20715;-55
2022/07/06 09:41:32;;;;;;;1.60;1.50;;;20.50;1.00;;;;;;6230789;28;20655;-54
2022/07/06 09:44:37;;;;;;;1.30;1.20;;;20.30;1.00;;;;;;6238177;28;20242;-53
2022/07/06 09:47:47;;;;;;;1.70;1.37;;;20.30;1.00;;;;;;6225783;28;20388;-53
2022/07/06 09:50:53;;;;;;;2.67;1.53;;;20.20;1.00;;;;;;6227868;28;20309;-53
2022/07/06 09:53:58;;;;;;;2.70;1.40;;;20.20;1.00;;;;;;6230025;28;20235;-53
2022/07/06 09:57:03;;;;;;;1.50;1.50;;;20.10;1.00;;;;;;6232776;28;20235;-54
2022/07/06 10:00:12;;;;;;;1.40;1.40;;;20.30;1.00;;;;;;6229210;28;20790;-54
2022/07/06 10:03:17;;;;;;;2.30;1.57;;;20.40;1.00;;;;;;6229507;28;20314;-53
2022/07/06 10:06:21;;;;;;;2.57;1.90;;;20.50;1.00;;;;;;6231687;28;20258;-54
2022/07/06 10:09:26;;;;;;;1.53;1.53;;;20.60;1.00;;;;;;6228191;28;20266;-51
2022/07/06 10:12:29;;;;;;;2.43;1.87;;;20.60;1.00;;;;;;6232379;28;20234;-54
2022/07/06 10:15:32;;;;;;;2.20;1.73;;;20.70;1.00;;;;;;6242555;28;20237;-54
2022/07/06 10:18:36;;;;;;;1.80;1.70;;;20.80;1.00;;;;;;6230279;28;20250;-54
2022/07/06 10:21:43;;;;;;;2.47;1.80;;;20.90;1.00;;;;;;6226801;28;20242;-53
2022/07/06 10:24:47;;;;;;;1.83;1.80;;;20.80;1.00;;;;;;6232254;28;20496;-55
2022/07/06 10:27:53;;;;;;;3.10;1.97;;;20.70;1.00;;;;;;6234924;28;20561;-54
2022/07/06 10:30:56;;;;;;;3.73;1.70;;;20.90;1.00;;;;;;6224409;28;20238;-53
2022/07/06 10:34:02;;;;;;;3.70;2.00;;;21.00;1.00;;;;;;6231690;28;20231;-53
2022/07/06 10:37:06;;;;;;;1.57;1.47;;;21.10;1.00;;;;;;6223329;28;21118;-53
2022/07/06 10:43:43;;;;;;;1.40;1.40;;;21.00;1.00;;;;;;6234869;28;20375;-53
2022/07/06 10:46:54;;;;;;;1.83;1.73;;;21.10;1.00;;;;;;6229779;28;20345;-53
2022/07/06 10:50:01;;;;;;;1.90;1.30;;;21.00;1.00;;;;;;6230742;28;20237;-55
2022/07/06 10:53:12;;;;;;;1.30;1.30;;;21.20;1.00;;;;;;6228192;28;20264;-54
2022/07/06 10:56:14;;;;;;;4.70;1.70;;;21.10;1.00;;;;;;6231968;28;20710;-54
2022/07/06 10:59:19;;;;;;;2.07;1.50;;;21.30;1.00;;;;;;6237357;28;21431;-53
2022/07/06 11:02:23;;;;;;;3.27;1.50;;;21.40;1.00;;;;;;6237075;28;20289;-54
2022/07/06 11:05:43;;;;;;;1.50;1.40;;;21.50;1.00;;;;;;6234451;28;20242;-54
2022/07/06 11:09:09;;;;;;;3.80;1.50;;;21.80;1.00;;;;;;6238844;28;20600;-54
2022/07/06 11:12:18;;;;;;;3.50;1.50;;;22.00;1.00;;;;;;6230887;28;20320;-54
2022/07/06 11:15:57;;;;;;;3.30;1.70;;;22.10;1.00;;;;;;6237670;28;20231;-54
2022/07/06 11:19:11;;;;;;;1.40;1.30;;;22.20;1.00;;;;;;6234948;28;20304;-54
2022/07/06 11:22:16;;;;;;;1.40;1.40;;;21.80;1.00;;;;;;6237315;28;20238;-49
2022/07/06 11:25:33;;;;;;;1.70;1.60;;;21.60;1.00;;;;;;6234633;28;20250;-53
2022/07/06 11:28:37;;;;;;;1.77;1.77;;;21.40;1.00;;;;;;6234613;28;20942;-54
2022/07/06 11:31:42;;;;;;;2.17;1.53;;;21.20;1.00;;;;;;6238928;28;20241;-53
2022/07/06 11:34:45;;;;;;;1.60;1.53;;;21.00;1.00;;;;;;6234714;28;20253;-55
2022/07/06 11:37:48;;;;;;;1.50;1.40;;;21.00;1.00;;;;;;6239806;28;20242;-54
2022/07/06 11:40:55;;;;;;;2.67;1.40;;;21.10;1.00;;;;;;6237308;28;20321;-54
2022/07/06 11:44:01;;;;;;;4.17;1.50;;;21.20;1.00;;;;;;6228829;28;20368;-53
2022/07/06 11:47:06;;;;;;;2.60;1.33;;;21.40;1.00;;;;;;6234364;28;20553;-56
2022/07/06 11:50:09;;;;;;;1.17;1.17;;;21.50;1.00;;;;;;6238345;28;20355;-54
2022/07/06 11:53:15;;;;;;;1.83;1.40;;;21.70;1.00;;;;;;6235610;28;20237;-54
2022/07/06 11:56:21;;;;;;;1.10;1.10;;;21.80;1.00;;;;;;6238547;28;20249;-54
2022/07/06 11:59:27;;;;;;;1.97;1.60;;;21.70;1.00;;;;;;6240229;28;20538;-54
2022/07/06 12:02:30;;;;;;;1.77;1.30;;;21.60;1.00;;;;;;6234173;28;20733;-53
2022/07/06 12:05:33;;;;;;;1.43;1.43;;;21.50;1.00;;;;;;6250667;28;20246;-55
2022/07/06 12:08:42;;;;;;;4.13;1.20;;;21.70;1.00;;;;;;6233014;28;20622;-54
2022/07/06 12:11:47;;;;;;;1.23;1.20;;;21.80;1.00;;;;;;6230862;28;20454;-55
2022/07/06 12:14:53;;;;;;;1.50;1.50;;;22.00;1.00;;;;;;6224647;28;20347;-51
2022/07/06 12:17:56;;;;;;;2.00;1.30;;;22.10;1.00;;;;;;6235138;28;20613;-55
2022/07/06 12:20:59;;;;;;;1.50;1.40;;;22.10;1.00;;;;;;6228380;28;20477;-54
2022/07/06 12:24:07;;;;;;;1.20;1.20;;;21.90;1.00;;;;;;6230112;28;20231;-55
2022/07/06 12:27:14;;;;;;;2.83;1.50;;;21.70;1.00;;;;;;6233680;28;20385;-54
2022/07/06 12:30:17;;;;;;;2.87;1.40;;;21.70;1.00;;;;;;6234047;28;20444;-55
2022/07/06 12:33:27;;;;;;;6.93;1.80;;;21.80;1.00;;;;;;6235307;28;20678;-55
2022/07/06 12:36:31;;;;;;;1.77;1.40;;;22.00;1.00;;;;;;6239123;28;20653;-54
2022/07/06 12:39:43;;;;;;;4.43;1.60;;;21.90;1.00;;;;;;6231913;28;20330;-54
2022/07/06 12:42:48;;;;;;;2.13;1.60;;;22.20;1.00;;;;;;6238692;28;20400;-54
2022/07/06 12:45:51;;;;;;;2.83;1.50;;;22.50;1.00;;;;;;6239621;28;20242;-53
2022/07/06 12:48:55;;;;;;;4.27;1.70;;;22.70;1.00;;;;;;6234415;28;20242;-54
2022/07/06 12:52:00;;;;;;;2.30;1.90;;;22.50;1.00;;;;;;6236551;28;20381;-54
2022/07/06 12:55:05;;;;;;;3.03;1.63;;;22.40;1.00;;;;;;6238815;28;20242;-53
2022/07/06 12:58:19;;;;;;;2.37;1.70;;;22.50;1.00;;;;;;6243976;28;20276;-54
2022/07/06 13:01:22;;;;;;;4.23;1.70;;;22.50;1.00;;;;;;6236510;28;20558;-54
2022/07/06 13:04:25;;;;;;;2.17;1.47;;;22.40;1.00;;;;;;6237812;28;20781;-53
2022/07/06 13:07:31;;;;;;;2.07;1.97;;;22.70;1.00;;;;;;6228081;28;20250;-53
2022/07/06 13:10:35;;;;;;;1.83;1.50;;;22.70;1.00;;;;;;6234635;28;20250;-55
2022/07/06 13:13:53;;;;;;;1.50;1.30;;;22.80;1.00;;;;;;6229065;28;20249;-55
2022/07/06 13:16:56;;;;;;;2.83;1.30;;;22.90;1.00;;;;;;6238551;28;20324;-54
2022/07/06 13:19:59;;;;;;;1.50;1.43;;;22.80;1.00;;;;;;6231823;28;20238;-53
2022/07/06 13:23:02;;;;;;;1.50;1.50;;;22.80;1.00;;;;;;6239475;28;20238;-53
2022/07/06 13:26:07;;;;;;;1.53;1.40;;;22.60;1.00;;;;;;6234487;28;20292;-53
2022/07/06 13:29:11;;;;;;;1.60;1.50;;;22.70;1.00;;;;;;6229583;28;20236;-54
2022/07/06 13:32:14;;;;;;;1.63;1.60;;;22.80;1.00;;;;;;6222985;28;20668;-52
2022/07/06 13:35:18;;;;;;;1.30;1.30;;;22.70;1.00;;;;;;6234050;28;20720;-55
2022/07/06 13:38:21;;;;;;;2.37;1.60;;;22.80;1.00;;;;;;6227764;28;20327;-54
2022/07/06 13:41:24;;;;;;;7.87;1.80;;;22.80;1.00;;;;;;6240584;28;20325;-53
2022/07/06 13:44:29;;;;;;;1.60;1.50;;;22.70;1.00;;;;;;6226172;28;20250;-53
2022/07/06 13:47:32;;;;;;;3.50;1.37;;;22.60;1.00;;;;;;6231121;28;20239;-54
2022/07/06 13:50:35;;;;;;;1.87;1.80;;;22.30;1.00;;;;;;6235614;28;20383;-55
2022/07/06 13:53:39;;;;;;;4.00;1.37;;;22.20;1.00;;;;;;6228689;28;20292;-53
2022/07/06 13:56:42;;;;;;;1.90;1.30;;;22.10;1.00;;;;;;6235835;28;20461;-55
2022/07/06 13:59:46;;;;;;;2.37;1.50;;;22.10;1.00;;;;;;6233862;28;20877;-54
2022/07/06 14:02:49;;;;;;;3.13;1.20;;;22.10;1.00;;;;;;6233152;28;20309;-54
2022/07/06 14:05:52;;;;;;;1.90;1.50;;;22.20;1.00;;;;;;6233427;28;20242;-54
2022/07/06 14:08:55;;;;;;;1.50;1.40;;;22.30;1.00;;;;;;6230694;28;20326;-53
2022/07/06 14:12:00;;;;;;;1.00;1.00;;;22.70;1.00;;;;;;6229109;28;20535;-55
2022/07/06 14:15:05;;;;;;;1.67;1.20;;;22.90;1.00;;;;;;6239660;28;20564;-54
2022/07/06 14:18:10;;;;;;;1.50;1.23;;;23.00;1.00;;;;;;6233813;28;20274;-55
2022/07/06 14:21:13;;;;;;;1.50;1.40;;;22.90;1.00;;;;;;6229815;28;20304;-55
2022/07/06 14:24:16;;;;;;;1.40;1.30;;;23.00;1.00;;;;;;6229195;28;20296;-54
2022/07/06 14:27:21;;;;;;;2.43;1.60;;;23.00;1.00;;;;;;6235692;28;20230;-54
2022/07/06 14:30:25;;;;;;;1.60;1.50;;;23.10;1.00;;;;;;6229667;28;20317;-54
2022/07/06 14:33:28;;;;;;;1.10;1.10;;;22.90;1.00;;;;;;6233911;28;20789;-54
2022/07/06 14:36:33;;;;;;;1.63;1.40;;;23.00;1.00;;;;;;6243300;28;20665;-55
2022/07/06 14:39:36;;;;;;;2.10;1.90;;;22.80;1.00;;;;;;6235622;28;20719;-54
2022/07/06 14:42:39;;;;;;;1.57;1.40;;;22.90;1.00;;;;;;6243802;28;20262;-53
2022/07/06 14:45:44;;;;;;;1.60;1.50;;;22.60;1.00;;;;;;6235275;28;20344;-54
2022/07/06 14:48:48;;;;;;;4.67;1.83;;;22.50;1.00;;;;;;6237575;28;20696;-55
2022/07/06 14:51:52;;;;;;;2.47;1.50;;;22.30;1.00;;;;;;6232335;28;20403;-55
2022/07/06 14:54:59;;;;;;;1.90;1.50;;;22.20;1.00;;;;;;6234931;28;20250;-54
2022/07/06 14:58:02;;;;;;;2.10;1.17;;;22.00;1.00;;;;;;6236140;28;20444;-55
2022/07/06 15:01:11;;;;;;;1.90;1.63;;;21.70;1.00;;;;;;6255615;28;20238;-55
2022/07/06 15:04:15;;;;;;;2.10;1.40;;;21.40;1.00;;;;;;6243715;28;20244;-54
2022/07/06 15:07:18;;;;;;;2.43;1.60;;;21.30;1.00;;;;;;6234916;28;20514;-55
2022/07/06 15:10:27;;;;;;;2.33;1.53;;;21.00;1.00;;;;;;6232796;28;20325;-56
2022/07/06 15:13:31;;;;;;;1.40;1.40;;;20.90;1.00;;;;;;6246167;28;20234;-55
2022/07/06 15:16:35;;;;;;;1.90;1.40;;;20.70;1.00;;;;;;6248687;28;20454;-55
2022/07/06 15:19:38;;;;;;;1.50;1.40;;;20.60;1.00;;;;;;6228990;28;20247;-55
2022/07/06 15:22:41;;;;;;;2.20;1.87;;;20.50;1.00;;;;;;6226717;28;20249;-55
2022/07/06 15:25:44;;;;;;;1.60;1.50;;;20.40;1.00;;;;;;6239647;28;20486;-55
2022/07/06 15:28:56;;;;;;;1.87;1.57;;;20.30;1.00;;;;;;6235005;28;20322;-55
2022/07/06 15:32:00;;;;;;;2.23;1.47;;;20.10;1.00;;;;;;6238923;28;20226;-55
2022/07/06 15:35:05;;;;;;;1.70;1.60;;;20.00;1.00;;;;;;6235851;28;20747;-55
2022/07/06 15:38:08;;;;;;;2.23;1.60;;;20.00;1.00;;;;;;6231738;28;20325;-55
2022/07/06 15:41:11;;;;;;;2.10;1.80;;;20.00;1.00;;;;;;6244312;28;20239;-55
2022/07/06 15:44:14;;;;;;;4.57;1.73;;;20.00;1.00;;;;;;6233205;28;20320;-54
2022/07/06 15:47:19;;;;;;;3.20;1.53;;;20.10;1.00;;;;;;6237211;28;20325;-54
2022/07/06 15:50:22;;;;;;;2.90;1.80;;;20.10;1.00;;;;;;6233143;28;20261;-54
2022/07/06 15:53:30;;;;;;;3.03;1.40;;;20.20;1.00;;;;;;6236644;28;20708;-54
2022/07/06 15:56:33;;;;;;;2.33;1.50;;;20.40;1.00;;;;;;6226633;28;20619;-55
2022/07/06 15:59:36;;;;;;;3.33;1.60;;;20.60;1.00;;;;;;6227622;28;20450;-54
2022/07/06 16:02:51;;;;;;;1.50;1.43;;;20.60;1.00;;;;;;6229649;28;20250;-54
2022/07/06 16:05:55;;;;;;;1.90;1.77;;;20.90;1.00;;;;;;6237841;28;20734;-54
2022/07/06 16:09:14;;;;;;;1.80;1.70;;;20.90;1.00;;;;;;6234526;28;20239;-54
2022/07/06 16:12:17;;;;;;;2.17;1.93;;;21.10;1.00;;;;;;6235876;28;20233;-55
2022/07/06 16:15:20;;;;;;;2.00;1.90;;;21.30;1.00;;;;;;6229633;28;20647;-55
2022/07/06 16:18:25;;;;;;;4.70;1.70;;;21.30;1.00;;;;;;6234181;28;20617;-55
2022/07/06 16:21:29;;;;;;;4.47;1.80;;;21.30;1.00;;;;;;6234911;28;20254;-55
2022/07/06 16:24:32;;;;;;;4.77;1.70;;;21.50;1.00;;;;;;6233348;28;20834;-57
2022/07/06 16:27:36;;;;;;;1.80;1.70;;;21.60;1.00;;;;;;6240981;28;20741;-55